sensor_id;sensor_type;location;lat;lon;timestamp;pressure;altitude;pressure_sealevel;temperature;humidity
21433;BME280;18592;49.708;10.900;2022-11-09T00:01:15;98300.75;;;14.99;51.74
21433;BME280;18592;49.708;10.900;2022-11-09T00:03:16;98299.63;;;15.00;51.87
21433;BME280;18592;49.708;10.900;2022-11-09T00:05:18;98292.22;;;15.01;51.88
21433;BME280;18592;49.708;10.900;2022-11-09T00:07:20;98289.50;;;15.01;51.64
21433;BME280;18592;49.708;10.900;2022-11-09T00:09:22;98283.44;;;15.04;51.70
21433;BME280;18592;49.708;10.900;2022-11-09T00:11:24;98279.84;;;15.03;51.71
21433;BME280;18592;49.708;10.900;2022-11-09T00:13:25;98289.75;;;15.04;51.79
21433;BME280;18592;49.708;10.900;2022-11-09T00:15:27;98285.09;;;15.05;51.66
21433;BME280;18592;49.708;10.900;2022-11-09T00:17:29;98279.84;;;15.03;51.69
21433;BME280;18592;49.708;10.900;2022-11-09T00:19:31;98279.34;;;15.01;51.66
21433;BME280;18592;49.708;10.900;2022-11-09T00:21:33;98277.41;;;15.02;51.73
21433;BME280;18592;49.708;10.900;2022-11-09T00:23:35;98276.06;;;14.99;51.68
21433;BME280;18592;49.708;10.900;2022-11-09T00:25:36;98276.88;;;15.00;51.66
21433;BME280;18592;49.708;10.900;2022-11-09T00:27:41;98263.44;;;14.98;51.73
21433;BME280;18592;49.708;10.900;2022-11-09T00:29:43;98273.59;;;14.98;51.67
21433;BME280;18592;49.708;10.900;2022-11-09T00:31:45;98261.81;;;14.97;51.85
21433;BME280;18592;49.708;10.900;2022-11-09T00:33:54;98271.66;;;14.98;51.75
21433;BME280;18592;49.708;10.900;2022-11-09T00:35:56;98260.97;;;14.97;51.71
21433;BME280;18592;49.708;10.900;2022-11-09T00:37:59;98266.16;;;14.98;51.73
21433;BME280;18592;49.708;10.900;2022-11-09T00:40:01;98265.34;;;14.98;51.58
21433;BME280;18592;49.708;10.900;2022-11-09T00:42:02;98263.44;;;14.98;51.67
21433;BME280;18592;49.708;10.900;2022-11-09T00:44:04;98268.41;;;14.96;51.65
21433;BME280;18592;49.708;10.900;2022-11-09T00:46:07;98279.66;;;14.95;51.72
21433;BME280;18592;49.708;10.900;2022-11-09T00:48:09;98281.28;;;14.96;51.75
21433;BME280;18592;49.708;10.900;2022-11-09T00:50:11;98285.94;;;14.95;51.63
21433;BME280;18592;49.708;10.900;2022-11-09T00:52:13;98283.50;;;14.94;51.71
21433;BME280;18592;49.708;10.900;2022-11-09T00:54:17;98289.00;;;14.94;51.79
21433;BME280;18592;49.708;10.900;2022-11-09T00:56:19;98298.06;;;14.94;51.83
21433;BME280;18592;49.708;10.900;2022-11-09T00:58:22;98294.50;;;14.94;51.74
21433;BME280;18592;49.708;10.900;2022-11-09T01:00:24;98296.41;;;14.93;51.57
21433;BME280;18592;49.708;10.900;2022-11-09T01:02:26;98292.84;;;14.93;51.58
21433;BME280;18592;49.708;10.900;2022-11-09T01:04:30;98289.00;;;14.94;51.52
21433;BME280;18592;49.708;10.900;2022-11-09T01:06:33;98276.97;;;14.90;51.93
21433;BME280;18592;49.708;10.900;2022-11-09T01:08:35;98278.59;;;14.91;51.76
21433;BME280;18592;49.708;10.900;2022-11-09T01:10:43;98270.34;;;14.91;51.73
21433;BME280;18592;49.708;10.900;2022-11-09T01:12:45;98266.78;;;14.90;51.79
21433;BME280;18592;49.708;10.900;2022-11-09T01:14:48;98255.00;;;14.90;51.79
21433;BME280;18592;49.708;10.900;2022-11-09T01:16:50;98251.44;;;14.89;51.77
21433;BME280;18592;49.708;10.900;2022-11-09T01:18:53;98261.59;;;14.89;51.76
21433;BME280;18592;49.708;10.900;2022-11-09T01:20:57;98261.88;;;14.87;51.82
21433;BME280;18592;49.708;10.900;2022-11-09T01:22:59;98251.19;;;14.86;51.80
21433;BME280;18592;49.708;10.900;2022-11-09T01:25:04;98255.31;;;14.83;51.75
21433;BME280;18592;49.708;10.900;2022-11-09T01:27:05;98260.81;;;14.83;51.75
21433;BME280;18592;49.708;10.900;2022-11-09T01:29:07;98259.97;;;14.83;51.59
21433;BME280;18592;49.708;10.900;2022-11-09T01:31:14;98244.63;;;14.82;51.76
21433;BME280;18592;49.708;10.900;2022-11-09T01:33:19;98246.56;;;14.81;51.73
21433;BME280;18592;49.708;10.900;2022-11-09T01:35:21;98255.09;;;14.80;52.00
21433;BME280;18592;49.708;10.900;2022-11-09T01:37:22;98251.78;;;14.78;52.06
21433;BME280;18592;49.708;10.900;2022-11-09T01:39:27;98247.13;;;14.78;51.75
21433;BME280;18592;49.708;10.900;2022-11-09T01:41:28;98247.13;;;14.78;51.90
21433;BME280;18592;49.708;10.900;2022-11-09T01:43:31;98236.97;;;14.79;51.84
21433;BME280;18592;49.708;10.900;2022-11-09T01:45:33;98250.69;;;14.79;51.95
21433;BME280;18592;49.708;10.900;2022-11-09T01:47:34;98242.47;;;14.79;51.99
21433;BME280;18592;49.708;10.900;2022-11-09T01:49:52;98239.19;;;14.77;51.89
21433;BME280;18592;49.708;10.900;2022-11-09T01:52:03;98236.97;;;14.79;51.85
21433;BME280;18592;49.708;10.900;2022-11-09T01:54:12;98233.41;;;14.78;52.03
21433;BME280;18592;49.708;10.900;2022-11-09T01:56:15;98238.06;;;14.78;51.90
21433;BME280;18592;49.708;10.900;2022-11-09T01:58:26;98239.19;;;14.77;52.15
21433;BME280;18592;49.708;10.900;2022-11-09T02:00:30;98236.66;;;14.80;51.79
21433;BME280;18592;49.708;10.900;2022-11-09T02:02:35;98246.56;;;14.81;51.93
21433;BME280;18592;49.708;10.900;2022-11-09T02:04:46;98263.81;;;14.87;51.65
21433;BME280;18592;49.708;10.900;2022-11-09T02:06:49;98250.66;;;14.84;51.99
21433;BME280;18592;49.708;10.900;2022-11-09T02:08:55;98259.72;;;14.84;52.06
21433;BME280;18592;49.708;10.900;2022-11-09T02:11:07;98256.97;;;14.84;51.68
21433;BME280;18592;49.708;10.900;2022-11-09T02:13:11;98261.88;;;14.87;51.76
21433;BME280;18592;49.708;10.900;2022-11-09T02:15:14;98252.31;;;14.85;51.98
21433;BME280;18592;49.708;10.900;2022-11-09T02:17:18;98246.50;;;14.86;51.92
21433;BME280;18592;49.708;10.900;2022-11-09T02:19:20;98251.69;;;14.88;51.91
21433;BME280;18592;49.708;10.900;2022-11-09T02:21:24;98254.75;;;14.86;51.99
21433;BME280;18592;49.708;10.900;2022-11-09T02:23:28;98257.50;;;14.86;51.89
21433;BME280;18592;49.708;10.900;2022-11-09T02:25:29;98251.69;;;14.88;51.87
21433;BME280;18592;49.708;10.900;2022-11-09T02:27:31;98245.41;;;14.87;51.81
21433;BME280;18592;49.708;10.900;2022-11-09T02:29:36;98244.59;;;14.87;51.93
21433;BME280;18592;49.708;10.900;2022-11-09T02:31:45;98252.00;;;14.86;51.86
21433;BME280;18592;49.708;10.900;2022-11-09T02:35:51;98256.97;;;14.84;51.91
21433;BME280;18592;49.708;10.900;2022-11-09T02:37:55;98262.72;;;14.83;51.86
21433;BME280;18592;49.708;10.900;2022-11-09T02:39:59;98249.56;;;14.85;51.86
21433;BME280;18592;49.708;10.900;2022-11-09T02:42:10;98247.91;;;14.84;51.87
21433;BME280;18592;49.708;10.900;2022-11-09T02:44:18;98253.91;;;14.86;51.85
21433;BME280;18592;49.708;10.900;2022-11-09T02:46:29;98259.97;;;14.83;51.72
21433;BME280;18592;49.708;10.900;2022-11-09T02:48:32;98254.75;;;14.86;51.99
21433;BME280;18592;49.708;10.900;2022-11-09T02:50:36;98257.78;;;14.85;51.79
21433;BME280;18592;49.708;10.900;2022-11-09T02:52:39;98249.00;;;14.83;52.01
21433;BME280;18592;49.708;10.900;2022-11-09T02:54:41;98256.66;;;14.86;51.92
21433;BME280;18592;49.708;10.900;2022-11-09T02:56:43;98254.22;;;14.84;51.97
21433;BME280;18592;49.708;10.900;2022-11-09T02:58:44;98254.75;;;14.86;51.91
21433;BME280;18592;49.708;10.900;2022-11-09T03:00:46;98260.53;;;14.85;52.00
21433;BME280;18592;49.708;10.900;2022-11-09T03:02:51;98269.03;;;14.83;52.01
21433;BME280;18592;49.708;10.900;2022-11-09T03:04:54;98279.44;;;14.86;51.97
21433;BME280;18592;49.708;10.900;2022-11-09T03:06:56;98277.53;;;14.87;51.87
21433;BME280;18592;49.708;10.900;2022-11-09T03:09:08;98288.50;;;14.87;51.99
21433;BME280;18592;49.708;10.900;2022-11-09T03:11:11;98282.50;;;14.85;52.07
21433;BME280;18592;49.708;10.900;2022-11-09T03:13:12;98282.50;;;14.85;52.03
21433;BME280;18592;49.708;10.900;2022-11-09T03:15:14;98283.84;;;14.87;51.79
21433;BME280;18592;49.708;10.900;2022-11-09T03:17:19;98284.94;;;14.86;52.13
21433;BME280;18592;49.708;10.900;2022-11-09T03:19:20;98284.41;;;14.84;52.24
21433;BME280;18592;49.708;10.900;2022-11-09T03:21:24;98299.22;;;14.83;52.13
21433;BME280;18592;49.708;10.900;2022-11-09T03:23:26;98287.97;;;14.85;52.20
21433;BME280;18592;49.708;10.900;2022-11-09T03:25:28;98283.00;;;14.87;52.15
21433;BME280;18592;49.708;10.900;2022-11-09T03:27:32;98289.84;;;14.89;52.18
21433;BME280;18592;49.708;10.900;2022-11-09T03:29:34;98285.72;;;14.92;51.97
21433;BME280;18592;49.708;10.900;2022-11-09T03:31:36;98289.56;;;14.91;51.73
21433;BME280;18592;49.708;10.900;2022-11-09T03:33:41;98293.13;;;14.91;51.95
21433;BME280;18592;49.708;10.900;2022-11-09T03:35:43;98300.53;;;14.91;51.75
21433;BME280;18592;49.708;10.900;2022-11-09T03:37:49;98298.31;;;14.93;51.82
21433;BME280;18592;49.708;10.900;2022-11-09T03:39:51;98294.78;;;14.92;52.13
21433;BME280;18592;49.708;10.900;2022-11-09T03:41:52;98294.22;;;14.90;52.25
21433;BME280;18592;49.708;10.900;2022-11-09T03:43:54;98294.50;;;14.94;51.97
21433;BME280;18592;49.708;10.900;2022-11-09T03:45:56;98291.75;;;14.94;51.99
21433;BME280;18592;49.708;10.900;2022-11-09T03:47:58;98299.44;;;14.92;52.14
21433;BME280;18592;49.708;10.900;2022-11-09T03:50:00;98297.53;;;14.92;52.07
21433;BME280;18592;49.708;10.900;2022-11-09T03:52:02;98296.69;;;14.92;52.20
21433;BME280;18592;49.708;10.900;2022-11-09T03:54:04;98290.38;;;14.91;52.14
21433;BME280;18592;49.708;10.900;2022-11-09T03:56:06;98282.44;;;14.90;52.30
21433;BME280;18592;49.708;10.900;2022-11-09T03:58:08;98282.44;;;14.90;52.39
21433;BME280;18592;49.708;10.900;2022-11-09T04:00:13;98273.63;;;14.93;52.18
21433;BME280;18592;49.708;10.900;2022-11-09T04:02:15;98266.50;;;14.92;52.43
21433;BME280;18592;49.708;10.900;2022-11-09T04:04:18;98270.88;;;14.93;52.34
21433;BME280;18592;49.708;10.900;2022-11-09T04:06:20;98275.84;;;14.91;52.72
21433;BME280;18592;49.708;10.900;2022-11-09T04:08:22;98285.72;;;14.92;52.25
21433;BME280;18592;49.708;10.900;2022-11-09T04:10:25;98284.59;;;14.93;52.23
21433;BME280;18592;49.708;10.900;2022-11-09T04:12:26;98288.72;;;14.90;52.25
21433;BME280;18592;49.708;10.900;2022-11-09T04:14:28;98295.34;;;14.89;52.34
21433;BME280;18592;49.708;10.900;2022-11-09T04:16:30;98299.72;;;14.90;52.21
21433;BME280;18592;49.708;10.900;2022-11-09T04:18:32;98299.72;;;14.90;52.45
21433;BME280;18592;49.708;10.900;2022-11-09T04:20:34;98298.91;;;14.90;52.43
21433;BME280;18592;49.708;10.900;2022-11-09T04:22:36;98305.19;;;14.90;52.42
21433;BME280;18592;49.708;10.900;2022-11-09T04:24:37;98309.06;;;14.89;52.48
21433;BME280;18592;49.708;10.900;2022-11-09T04:26:39;98302.75;;;14.89;52.48
21433;BME280;18592;49.708;10.900;2022-11-09T04:28:41;98292.59;;;14.89;52.74
21433;BME280;18592;49.708;10.900;2022-11-09T04:30:42;98292.06;;;14.87;52.57
21433;BME280;18592;49.708;10.900;2022-11-09T04:32:44;98304.41;;;14.90;52.61
21433;BME280;18592;49.708;10.900;2022-11-09T04:34:46;98309.91;;;14.90;52.65
21433;BME280;18592;49.708;10.900;2022-11-09T04:36:47;98301.09;;;14.88;52.55
21433;BME280;18592;49.708;10.900;2022-11-09T04:38:49;98303.84;;;14.88;52.50
21433;BME280;18592;49.708;10.900;2022-11-09T04:40:51;98311.28;;;14.87;52.63
21433;BME280;18592;49.708;10.900;2022-11-09T04:42:53;98308.81;;;14.86;52.74
21433;BME280;18592;49.708;10.900;2022-11-09T04:44:55;98304.97;;;14.87;52.81
21433;BME280;18592;49.708;10.900;2022-11-09T04:46:56;98295.91;;;14.86;52.78
21433;BME280;18592;49.708;10.900;2022-11-09T04:48:58;98292.63;;;14.84;52.76
21433;BME280;18592;49.708;10.900;2022-11-09T04:51:01;98298.41;;;14.83;52.82
21433;BME280;18592;49.708;10.900;2022-11-09T04:53:13;98289.06;;;14.84;52.71
21433;BME280;18592;49.708;10.900;2022-11-09T04:55:21;98304.97;;;14.87;52.53
21433;BME280;18592;49.708;10.900;2022-11-09T04:57:23;98313.19;;;14.87;52.89
21433;BME280;18592;49.708;10.900;2022-11-09T04:59:25;98316.19;;;14.90;52.51
21433;BME280;18592;49.708;10.900;2022-11-09T05:01:26;98327.47;;;14.89;52.69
21433;BME280;18592;49.708;10.900;2022-11-09T05:03:28;98335.13;;;14.92;52.51
21433;BME280;18592;49.708;10.900;2022-11-09T05:05:32;98322.50;;;14.91;52.57
21433;BME280;18592;49.708;10.900;2022-11-09T05:07:35;98320.56;;;14.91;52.58
21433;BME280;18592;49.708;10.900;2022-11-09T05:09:37;98319.75;;;14.91;52.54
21433;BME280;18592;49.708;10.900;2022-11-09T05:11:39;98321.66;;;14.90;52.52
21433;BME280;18592;49.708;10.900;2022-11-09T05:13:41;98316.47;;;14.89;52.87
21433;BME280;18592;49.708;10.900;2022-11-09T05:15:43;98320.88;;;14.90;52.67
21433;BME280;18592;49.708;10.900;2022-11-09T05:17:45;98326.38;;;14.90;52.68
21433;BME280;18592;49.708;10.900;2022-11-09T05:19:46;98323.03;;;14.93;52.79
21433;BME280;18592;49.708;10.900;2022-11-09T05:21:56;98326.34;;;14.95;52.73
21433;BME280;18592;49.708;10.900;2022-11-09T05:24:18;98326.88;;;14.92;52.85
21433;BME280;18592;49.708;10.900;2022-11-09T05:26:19;98331.56;;;14.91;52.85
21433;BME280;18592;49.708;10.900;2022-11-09T05:28:21;98340.63;;;14.92;52.92
21433;BME280;18592;49.708;10.900;2022-11-09T05:30:22;98343.31;;;14.97;52.84
21433;BME280;18592;49.708;10.900;2022-11-09T05:32:24;98345.78;;;14.98;52.63
21433;BME280;18592;49.708;10.900;2022-11-09T05:34:26;98349.34;;;14.99;52.67
21433;BME280;18592;49.708;10.900;2022-11-09T05:36:28;98350.44;;;14.98;52.68
21433;BME280;18592;49.708;10.900;2022-11-09T05:38:31;98351.56;;;14.97;52.62
21433;BME280;18592;49.708;10.900;2022-11-09T05:40:32;98363.63;;;14.96;52.95
21433;BME280;18592;49.708;10.900;2022-11-09T05:42:37;98369.13;;;14.96;52.77
21433;BME280;18592;49.708;10.900;2022-11-09T05:44:40;98373.00;;;14.95;53.02
21433;BME280;18592;49.708;10.900;2022-11-09T05:46:42;98378.47;;;14.95;53.01
21433;BME280;18592;49.708;10.900;2022-11-09T05:48:44;98375.16;;;14.93;52.95
21433;BME280;18592;49.708;10.900;2022-11-09T05:50:46;98372.44;;;14.93;53.07
21433;BME280;18592;49.708;10.900;2022-11-09T05:52:58;98371.63;;;14.92;53.25
21433;BME280;18592;49.708;10.900;2022-11-09T05:55:00;98377.38;;;14.91;53.04
21433;BME280;18592;49.708;10.900;2022-11-09T05:57:02;98366.41;;;14.91;53.07
21433;BME280;18592;49.708;10.900;2022-11-09T05:59:03;98359.28;;;14.90;53.13
21433;BME280;18592;49.708;10.900;2022-11-09T06:01:13;98363.97;;;14.89;53.35
21433;BME280;18592;49.708;10.900;2022-11-09T06:03:15;98363.13;;;14.89;53.38
21433;BME280;18592;49.708;10.900;2022-11-09T06:05:17;98357.94;;;14.87;53.46
21433;BME280;18592;49.708;10.900;2022-11-09T06:07:20;98356.59;;;14.85;53.52
21433;BME280;18592;49.708;10.900;2022-11-09T06:09:22;98356.59;;;14.85;53.53
21433;BME280;18592;49.708;10.900;2022-11-09T06:11:24;98360.41;;;14.84;53.48
21433;BME280;18592;49.708;10.900;2022-11-09T06:13:26;98358.75;;;14.83;53.35
21433;BME280;18592;49.708;10.900;2022-11-09T06:15:28;98358.75;;;14.83;53.65
21433;BME280;18592;49.708;10.900;2022-11-09T06:17:30;98356.31;;;14.81;53.79
21433;BME280;18592;49.708;10.900;2022-11-09T06:19:32;98353.31;;;14.78;53.78
21433;BME280;18592;49.708;10.900;2022-11-09T06:21:37;98354.44;;;14.77;53.90
21433;BME280;18592;49.708;10.900;2022-11-09T06:23:39;98361.00;;;14.76;53.77
21433;BME280;18592;49.708;10.900;2022-11-09T06:25:45;98353.91;;;14.75;53.86
21433;BME280;18592;49.708;10.900;2022-11-09T06:27:47;98347.06;;;14.72;53.82
21433;BME280;18592;49.708;10.900;2022-11-09T06:29:49;98352.28;;;14.69;54.06
21433;BME280;18592;49.708;10.900;2022-11-09T06:31:50;98353.38;;;14.68;54.01
21433;BME280;18592;49.708;10.900;2022-11-09T06:33:53;98353.66;;;14.66;53.94
21433;BME280;18592;49.708;10.900;2022-11-09T06:35:55;98358.31;;;14.66;54.02
21433;BME280;18592;49.708;10.900;2022-11-09T06:37:58;98362.19;;;14.65;53.92
21433;BME280;18592;49.708;10.900;2022-11-09T06:40:00;98364.34;;;14.62;54.18
21433;BME280;18592;49.708;10.900;2022-11-09T06:42:02;98361.91;;;14.61;54.04
21433;BME280;18592;49.708;10.900;2022-11-09T06:44:05;98363.28;;;14.58;54.10
21433;BME280;18592;49.708;10.900;2022-11-09T06:46:07;98368.78;;;14.58;54.15
21433;BME280;18592;49.708;10.900;2022-11-09T06:48:11;98378.66;;;14.59;54.11
21433;BME280;18592;49.708;10.900;2022-11-09T06:50:13;98382.78;;;14.57;54.18
21433;BME280;18592;49.708;10.900;2022-11-09T06:52:18;98377.56;;;14.55;54.59
21433;BME280;18592;49.708;10.900;2022-11-09T06:54:19;98384.97;;;14.55;54.31
21433;BME280;18592;49.708;10.900;2022-11-09T06:56:21;98388.84;;;14.54;54.40
21433;BME280;18592;49.708;10.900;2022-11-09T06:58:26;98377.03;;;14.53;54.39
21433;BME280;18592;49.708;10.900;2022-11-09T07:00:28;98393.50;;;14.53;54.44
21433;BME280;18592;49.708;10.900;2022-11-09T07:02:30;98385.81;;;14.50;54.90
21433;BME280;18592;49.708;10.900;2022-11-09T07:04:32;98385.28;;;14.48;54.81
21433;BME280;18592;49.708;10.900;2022-11-09T07:06:39;98390.47;;;14.50;54.62
21433;BME280;18592;49.708;10.900;2022-11-09T07:08:41;98384.19;;;14.49;54.54
21433;BME280;18592;49.708;10.900;2022-11-09T07:10:43;98389.94;;;14.48;54.74
21433;BME280;18592;49.708;10.900;2022-11-09T07:12:45;98399.28;;;14.47;54.79
21433;BME280;18592;49.708;10.900;2022-11-09T07:14:52;98391.06;;;14.47;54.65
21433;BME280;18592;49.708;10.900;2022-11-09T07:16:55;98395.44;;;14.48;54.92
21433;BME280;18592;49.708;10.900;2022-11-09T07:18:57;98392.16;;;14.46;54.93
21433;BME280;18592;49.708;10.900;2022-11-09T07:21:06;98389.69;;;14.44;55.08
21433;BME280;18592;49.708;10.900;2022-11-09T07:23:14;98400.66;;;14.44;55.12
21433;BME280;18592;49.708;10.900;2022-11-09T07:25:16;98397.38;;;14.42;54.92
21433;BME280;18592;49.708;10.900;2022-11-09T07:27:18;98409.97;;;14.43;54.93
21433;BME280;18592;49.708;10.900;2022-11-09T07:29:26;98402.06;;;14.42;54.96
21433;BME280;18592;49.708;10.900;2022-11-09T07:31:28;98400.09;;;14.42;55.24
21433;BME280;18592;49.708;10.900;2022-11-09T07:33:31;98402.84;;;14.42;55.09
21433;BME280;18592;49.708;10.900;2022-11-09T07:35:33;98418.22;;;14.43;55.34
21433;BME280;18592;49.708;10.900;2022-11-09T07:37:35;98410.28;;;14.42;55.21
21433;BME280;18592;49.708;10.900;2022-11-09T07:39:37;98409.97;;;14.43;55.12
21433;BME280;18592;49.708;10.900;2022-11-09T07:41:39;98417.91;;;14.45;54.99
21433;BME280;18592;49.708;10.900;2022-11-09T07:43:41;98428.09;;;14.44;55.02
21433;BME280;18592;49.708;10.900;2022-11-09T07:45:42;98426.44;;;14.43;55.41
21433;BME280;18592;49.708;10.900;2022-11-09T07:47:44;98417.38;;;14.43;55.12
21433;BME280;18592;49.708;10.900;2022-11-09T07:49:47;98414.63;;;14.43;55.13
21433;BME280;18592;49.708;10.900;2022-11-09T07:51:49;98417.13;;;14.44;55.19
21433;BME280;18592;49.708;10.900;2022-11-09T07:53:51;98419.88;;;14.44;55.31
21433;BME280;18592;49.708;10.900;2022-11-09T07:55:57;98418.50;;;14.42;55.64
21433;BME280;18592;49.708;10.900;2022-11-09T07:58:02;98421.25;;;14.42;55.43
21433;BME280;18592;49.708;10.900;2022-11-09T08:00:04;98419.88;;;14.44;55.42
21433;BME280;18592;49.708;10.900;2022-11-09T08:02:11;98420.13;;;14.43;55.33
21433;BME280;18592;49.708;10.900;2022-11-09T08:04:13;98420.94;;;14.43;55.49
21433;BME280;18592;49.708;10.900;2022-11-09T08:06:15;98415.75;;;14.42;55.66
21433;BME280;18592;49.708;10.900;2022-11-09T08:08:19;98422.63;;;14.44;55.55
21433;BME280;18592;49.708;10.900;2022-11-09T08:10:21;98426.44;;;14.43;55.79
21433;BME280;18592;49.708;10.900;2022-11-09T08:12:23;98431.94;;;14.43;55.56
21433;BME280;18592;49.708;10.900;2022-11-09T08:14:25;98431.94;;;14.43;55.66
21433;BME280;18592;49.708;10.900;2022-11-09T08:16:26;98429.19;;;14.43;55.63
21433;BME280;18592;49.708;10.900;2022-11-09T08:18:33;98431.94;;;14.43;55.47
21433;BME280;18592;49.708;10.900;2022-11-09T08:20:35;98430.84;;;14.44;55.53
21433;BME280;18592;49.708;10.900;2022-11-09T08:22:44;98433.84;;;14.43;55.44
21433;BME280;18592;49.708;10.900;2022-11-09T08:24:46;98441.25;;;14.42;55.45
21433;BME280;18592;49.708;10.900;2022-11-09T08:26:48;98440.72;;;14.40;55.70
21433;BME280;18592;49.708;10.900;2022-11-09T08:28:52;98445.09;;;14.41;55.59
21433;BME280;18592;49.708;10.900;2022-11-09T08:31:03;98436.88;;;14.41;55.66
21433;BME280;18592;49.708;10.900;2022-11-09T08:33:05;98428.66;;;14.41;55.48
21433;BME280;18592;49.708;10.900;2022-11-09T08:35:11;98440.16;;;14.43;55.94
21433;BME280;18592;49.708;10.900;2022-11-09T08:37:19;98450.28;;;14.43;55.75
21433;BME280;18592;49.708;10.900;2022-11-09T08:39:21;98465.91;;;14.42;55.81
21433;BME280;18592;49.708;10.900;2022-11-09T08:41:24;98462.91;;;14.44;55.99
21433;BME280;18592;49.708;10.900;2022-11-09T08:43:26;98455.53;;;14.44;56.31
21433;BME280;18592;49.708;10.900;2022-11-09T08:45:27;98460.41;;;14.47;55.93
21433;BME280;18592;49.708;10.900;2022-11-09T08:47:30;98449.44;;;14.47;56.07
21433;BME280;18592;49.708;10.900;2022-11-09T08:49:32;98453.84;;;14.48;56.25
21433;BME280;18592;49.708;10.900;2022-11-09T08:51:33;98457.66;;;14.52;55.77
21433;BME280;18592;49.708;10.900;2022-11-09T08:53:35;98470.00;;;14.55;56.10
21433;BME280;18592;49.708;10.900;2022-11-09T08:55:37;98471.94;;;14.54;56.22
21433;BME280;18592;49.708;10.900;2022-11-09T08:57:39;98467.53;;;14.58;55.90
21433;BME280;18592;49.708;10.900;2022-11-09T08:59:40;98477.41;;;14.59;55.94
21433;BME280;18592;49.708;10.900;2022-11-09T09:01:42;98470.28;;;14.58;56.27
21433;BME280;18592;49.708;10.900;2022-11-09T09:03:44;98474.09;;;14.57;56.31
21433;BME280;18592;49.708;10.900;2022-11-09T09:05:50;98472.72;;;14.60;56.26
21433;BME280;18592;49.708;10.900;2022-11-09T09:07:52;98468.06;;;14.60;56.24
21433;BME280;18592;49.708;10.900;2022-11-09T09:09:53;98462.03;;;14.58;56.63
21433;BME280;18592;49.708;10.900;2022-11-09T09:11:55;98455.72;;;14.58;56.15
21433;BME280;18592;49.708;10.900;2022-11-09T09:13:57;98455.72;;;14.58;56.09
21433;BME280;18592;49.708;10.900;2022-11-09T09:16:08;98457.66;;;14.57;56.81
21433;BME280;18592;49.708;10.900;2022-11-09T09:18:10;98444.75;;;14.58;56.24
21433;BME280;18592;49.708;10.900;2022-11-09T09:20:12;98455.72;;;14.58;56.35
21433;BME280;18592;49.708;10.900;2022-11-09T09:22:14;98455.19;;;14.56;56.28
21433;BME280;18592;49.708;10.900;2022-11-09T09:24:16;98452.47;;;14.56;56.26
21433;BME280;18592;49.708;10.900;2022-11-09T09:26:17;98448.34;;;14.58;56.47
21433;BME280;18592;49.708;10.900;2022-11-09T09:28:19;98445.59;;;14.58;56.40
21433;BME280;18592;49.708;10.900;2022-11-09T09:30:22;98440.94;;;14.59;56.63
21433;BME280;18592;49.708;10.900;2022-11-09T09:32:24;98439.00;;;14.59;56.56
21433;BME280;18592;49.708;10.900;2022-11-09T09:34:26;98452.16;;;14.57;56.71
21433;BME280;18592;49.708;10.900;2022-11-09T09:36:27;98469.19;;;14.59;56.80
21433;BME280;18592;49.708;10.900;2022-11-09T09:38:29;98468.06;;;14.60;56.56
21433;BME280;18592;49.708;10.900;2022-11-09T09:40:38;98472.19;;;14.63;56.76
21433;BME280;18592;49.708;10.900;2022-11-09T09:42:45;98465.31;;;14.66;56.62
21433;BME280;18592;49.708;10.900;2022-11-09T09:47:13;98460.94;;;14.70;57.45
21433;BME280;18592;49.708;10.900;2022-11-09T09:49:19;98459.53;;;14.72;57.01
21433;BME280;18592;49.708;10.900;2022-11-09T09:51:32;98470.22;;;14.74;57.27
21433;BME280;18592;49.708;10.900;2022-11-09T09:53:42;98462.25;;;14.82;57.92
21433;BME280;18592;49.708;10.900;2022-11-09T09:55:53;98458.66;;;14.87;56.85
21433;BME280;18592;49.708;10.900;2022-11-09T09:58:03;98457.28;;;14.89;56.77
21433;BME280;18592;49.708;10.900;2022-11-09T10:00:07;98449.84;;;14.95;57.01
21433;BME280;18592;49.708;10.900;2022-11-09T10:02:23;98443.22;;;14.96;57.07
21433;BME280;18592;49.708;10.900;2022-11-09T10:04:39;98445.69;;;15.02;57.42
21433;BME280;18592;49.708;10.900;2022-11-09T10:07:12;98437.16;;;15.04;57.48
21433;BME280;18592;49.708;10.900;2022-11-09T10:09:24;98427.53;;;15.06;57.45
21433;BME280;18592;49.708;10.900;2022-11-09T10:14:09;98424.47;;;15.13;57.63
21433;BME280;18592;49.708;10.900;2022-11-09T10:16:26;98420.06;;;15.17;57.85
21433;BME280;18592;49.708;10.900;2022-11-09T10:21:13;98412.59;;;15.27;58.30
21433;BME280;18592;49.708;10.900;2022-11-09T10:23:35;98415.53;;;15.36;58.21
21433;BME280;18592;49.708;10.900;2022-11-09T10:25:43;98432.50;;;15.43;58.38
21433;BME280;18592;49.708;10.900;2022-11-09T10:28:12;98428.41;;;15.51;58.48
21433;BME280;18592;49.708;10.900;2022-11-09T10:30:17;98418.72;;;15.58;57.84
21433;BME280;18592;49.708;10.900;2022-11-09T10:32:21;98420.59;;;15.63;58.05
21433;BME280;18592;49.708;10.900;2022-11-09T10:34:27;98429.06;;;15.66;58.08
21433;BME280;18592;49.708;10.900;2022-11-09T10:36:36;98437.28;;;15.71;57.91
21433;BME280;18592;49.708;10.900;2022-11-09T10:38:46;98433.13;;;15.74;57.88
21433;BME280;18592;49.708;10.900;2022-11-09T10:41:27;98413.63;;;15.75;57.88
21433;BME280;18592;49.708;10.900;2022-11-09T10:43:49;98407.56;;;15.78;57.71
21433;BME280;18592;49.708;10.900;2022-11-09T10:46:09;98410.84;;;15.80;57.55
21433;BME280;18592;49.708;10.900;2022-11-09T10:48:35;98405.84;;;15.82;57.56
21433;BME280;18592;49.708;10.900;2022-11-09T10:50:56;98398.97;;;15.85;57.57
21433;BME280;18592;49.708;10.900;2022-11-09T10:55:56;98411.00;;;15.89;57.87
21433;BME280;18592;49.708;10.900;2022-11-09T10:58:37;98415.94;;;15.92;57.79
21433;BME280;18592;49.708;10.900;2022-11-09T11:03:24;98408.41;;;16.03;57.75
21433;BME280;18592;49.708;10.900;2022-11-09T11:05:55;98399.59;;;16.06;57.72